Time;durP1;ratioP1;P1;durP2;ratioP2;P2;SDS_P1;SDS_P2;PMS_P1;PMS_P2;Temp;Humidity;BMP_temperature;BMP_pressure;BME280_temperature;BME280_humidity;BME280_pressure;Samples;Min_cycle;Max_cycle;Signal;HPM_P1;HPM_P2
2023/08/28 00:00:20;;;;;;;8.00;5.50;;;;;;;24.09;63.13;99662.41;5109060;28;20633;-29
2023/08/28 00:02:45;;;;;;;10.98;5.75;;;;;;;24.18;63.12;99665.97;5108710;28;20450;-29
2023/08/28 00:05:11;;;;;;;10.13;6.15;;;;;;;24.09;64.20;99676.03;5108716;28;20731;-31
2023/08/28 00:07:36;;;;;;;11.18;5.93;;;;;;;24.01;64.36;99675.72;5108420;28;20036;-29
2023/08/28 00:10:04;;;;;;;7.68;5.35;;;;;;;23.83;64.92;99660.47;5108603;28;20030;-30
2023/08/28 00:12:29;;;;;;;12.07;6.32;;;;;;;24.19;63.47;99670.28;5108582;28;20026;-29
2023/08/28 00:14:55;;;;;;;8.93;5.93;;;;;;;24.18;63.44;99668.69;5108357;28;20035;-28
2023/08/28 00:17:20;;;;;;;9.70;6.38;;;;;;;24.31;62.13;99667.72;5108323;28;20424;-29
2023/08/28 00:19:49;;;;;;;11.43;6.20;;;;;;;24.32;62.83;99672.06;5108002;28;20028;-28
2023/08/28 00:22:14;;;;;;;11.20;5.57;;;;;;;24.25;62.61;99674.44;5108153;28;20419;-30
2023/08/28 00:24:39;;;;;;;8.88;6.07;;;;;;;24.20;62.88;99677.34;5108699;28;20019;-32
2023/08/28 00:27:05;;;;;;;9.75;6.28;;;;;;;24.10;62.90;99672.22;5108407;28;20050;-31
2023/08/28 00:29:30;;;;;;;9.65;6.43;;;;;;;24.12;63.24;99670.75;5107991;27;20028;-33
2023/08/28 00:31:56;;;;;;;11.38;5.72;;;;;;;24.05;62.49;99665.00;5107836;28;20793;-31
2023/08/28 00:34:24;;;;;;;10.43;6.10;;;;;;;24.08;62.56;99655.38;5107889;28;20727;-32
2023/08/28 00:36:49;;;;;;;;;;;;;;;24.05;62.95;99671.25;5108448;28;20023;-32
2023/08/28 00:39:15;;;;;;;10.20;5.95;;;;;;;23.98;63.47;99664.66;5108065;28;19918;-31
2023/08/28 00:41:40;;;;;;;10.82;5.78;;;;;;;23.97;63.30;99654.91;5107802;28;20042;-29
2023/08/28 00:44:06;;;;;;;10.27;6.03;;;;;;;23.67;63.25;99649.97;5107900;28;20531;-29
2023/08/28 00:46:32;;;;;;;10.73;6.25;;;;;;;23.67;63.95;99649.97;5107851;28;20537;-29
2023/08/28 00:48:57;;;;;;;9.10;6.00;;;;;;;23.47;65.26;99656.78;5107166;28;20074;-29
2023/08/28 00:51:23;;;;;;;8.35;6.25;;;;;;;23.75;64.20;99661.22;5107955;28;20122;-29
2023/08/28 00:53:48;;;;;;;7.97;5.75;;;;;;;23.62;64.29;99661.03;5107338;28;20397;-29
2023/08/28 00:56:14;;;;;;;8.95;5.63;;;;;;;23.72;64.56;99656.41;5107716;28;20111;-29
2023/08/28 00:58:40;;;;;;;8.35;6.00;;;;;;;23.72;64.72;99659.13;5107828;28;20051;-29
2023/08/28 01:01:05;;;;;;;9.00;5.18;;;;;;;23.84;64.46;99648.44;5107507;28;20489;-29
2023/08/28 01:03:30;;;;;;;8.45;5.63;;;;;;;23.55;63.67;99640.81;5106322;28;20066;-31
2023/08/28 01:06:17;;;;;;;10.43;5.90;;;;;;;23.31;64.02;99649.38;5107377;28;20571;-29
2023/08/28 01:09:06;;;;;;;15.00;6.18;;;;;;;23.35;64.12;99648.44;5107539;28;20524;-30
2023/08/28 01:11:49;;;;;;;9.77;6.32;;;;;;;22.96;66.30;99646.47;5106953;28;20661;-29
2023/08/28 01:14:25;;;;;;;11.73;6.40;;;;;;;23.03;64.38;99649.59;5107215;28;20114;-29
2023/08/28 01:16:52;;;;;;;16.63;8.98;;;;;;;22.96;64.76;99660.84;5107005;28;20488;-29
2023/08/28 01:19:37;;;;;;;14.57;8.63;;;;;;;22.87;65.48;99666.25;5107049;27;20019;-30
2023/08/28 01:22:14;;;;;;;10.43;7.28;;;;;;;22.21;68.48;99665.91;5107227;28;20150;-28
2023/08/28 01:24:45;;;;;;;8.88;6.65;;;;;;;22.11;69.76;99659.88;5107362;28;20111;-29
2023/08/28 01:27:12;;;;;;;11.93;6.95;;;;;;;22.17;69.71;99653.22;5107088;28;20019;-29
2023/08/28 01:29:38;;;;;;;9.07;6.88;;;;;;;22.19;69.63;99656.44;5106785;27;20023;-29
2023/08/28 01:32:04;;;;;;;10.70;7.03;;;;;;;22.18;70.39;99641.25;5106762;28;20032;-30
2023/08/28 01:34:29;;;;;;;11.05;6.68;;;;;;;22.35;70.95;99637.91;5107325;28;20031;-29
2023/08/28 01:37:01;;;;;;;9.60;6.85;;;;;;;22.22;70.95;99634.13;5107067;28;20384;-30
2023/08/28 01:39:36;;;;;;;11.73;6.40;;;;;;;22.45;70.79;99627.63;5106564;28;20035;-28
2023/08/28 01:42:01;;;;;;;9.48;6.65;;;;;;;22.78;69.70;99634.69;5106818;28;20030;-29
2023/08/28 01:44:29;;;;;;;10.27;7.15;;;;;;;22.60;70.59;99622.94;5106494;28;20264;-29
2023/08/28 01:46:56;;;;;;;9.90;6.68;;;;;;;22.65;70.66;99630.94;5106734;28;20102;-30
2023/08/28 01:49:27;;;;;;;10.40;6.65;;;;;;;22.44;71.46;99620.56;5106689;28;20078;-28
2023/08/28 01:51:52;;;;;;;14.25;6.93;;;;;;;22.70;70.22;99627.28;5106619;28;20129;-28
2023/08/28 01:54:18;;;;;;;9.65;7.28;;;;;;;22.38;71.66;99627.25;5106423;28;20028;-28
2023/08/28 01:56:43;;;;;;;10.75;6.88;;;;;;;22.36;72.57;99618.59;5106462;28;20461;-29
2023/08/28 01:59:09;;;;;;;11.10;6.82;;;;;;;22.64;70.68;99634.78;5105314;28;20027;-29
2023/08/28 02:01:35;;;;;;;10.68;6.90;;;;;;;22.31;71.28;99626.84;5106415;28;20031;-30
2023/08/28 02:04:00;;;;;;;11.82;6.95;;;;;;;22.35;71.06;99629.75;5106366;28;20038;-28
2023/08/28 02:06:26;;;;;;;8.98;6.60;;;;;;;22.12;71.51;99637.06;5106337;28;20110;-28
2023/08/28 02:08:51;;;;;;;11.90;7.55;;;;;;;21.91;73.28;99628.56;5106053;28;20408;-28
2023/08/28 02:11:17;;;;;;;10.85;7.65;;;;;;;21.65;73.67;99632.63;5106296;28;20069;-29
2023/08/28 02:13:42;;;;;;;12.23;7.47;;;;;;;21.94;72.92;99623.31;5106292;28;20110;-29
2023/08/28 02:16:08;;;;;;;9.40;7.05;;;;;;;22.08;71.88;99626.00;5106026;28;20145;-29
2023/08/28 02:18:33;;;;;;;9.65;6.70;;;;;;;22.20;72.23;99620.03;5105969;28;20422;-30
2023/08/28 02:20:58;;;;;;;11.85;7.80;;;;;;;22.42;71.32;99622.78;5105651;28;20030;-29
2023/08/28 02:23:26;;;;;;;13.02;7.57;;;;;;;22.24;70.57;99626.50;5105925;28;20076;-28
2023/08/28 02:25:51;;;;;;;11.23;8.05;;;;;;;22.52;70.98;99627.19;5105674;28;20571;-28
2023/08/28 02:28:18;;;;;;;9.77;7.13;;;;;;;22.46;71.71;99623.78;5105610;28;20571;-29
2023/08/28 02:30:46;;;;;;;15.90;9.88;;;;;;;22.16;73.04;99624.47;5106082;28;20031;-30
2023/08/28 02:33:13;;;;;;;16.40;9.52;;;;;;;21.65;73.40;99615.53;5105862;28;20407;-28
2023/08/28 02:35:39;;;;;;;13.05;9.18;;;;;;;21.74;72.72;99627.28;5106060;28;20015;-30
2023/08/28 02:38:08;;;;;;;12.60;9.00;;;;;;;21.70;73.25;99622.75;5105929;28;20050;-28
2023/08/28 02:40:35;;;;;;;11.82;7.95;;;;;;;21.64;73.86;99620.16;5105991;28;20027;-28
2023/08/28 02:43:05;;;;;;;10.23;7.75;;;;;;;22.20;72.25;99615.41;5105833;28;20024;-29
2023/08/28 02:45:40;;;;;;;11.32;7.53;;;;;;;21.94;72.53;99606.22;5105558;28;20124;-28
2023/08/28 02:48:06;;;;;;;13.20;7.55;;;;;;;21.65;71.76;99616.34;5105313;28;20067;-29
2023/08/28 02:50:32;;;;;;;13.23;7.60;;;;;;;21.41;74.02;99615.72;5105780;28;20173;-29
2023/08/28 02:52:57;;;;;;;10.88;7.47;;;;;;;21.53;74.38;99618.75;5105525;28;20492;-28
2023/08/28 02:55:23;;;;;;;10.98;8.00;;;;;;;21.62;75.00;99611.53;5105660;28;20549;-30
2023/08/28 02:57:51;;;;;;;12.77;7.25;;;;;;;21.60;73.63;99602.88;5105593;28;20032;-29
2023/08/28 03:00:18;;;;;;;11.73;7.80;;;;;;;21.90;73.12;99611.47;5105600;28;20072;-29
2023/08/28 03:02:44;;;;;;;10.67;7.27;;;;;;;21.73;73.88;99611.31;5105910;28;20625;-29
2023/08/28 03:05:09;;;;;;;10.48;7.72;;;;;;;21.43;72.22;99613.53;5105179;28;20785;-28
2023/08/28 03:07:34;;;;;;;9.60;7.30;;;;;;;21.34;72.21;99620.75;5105738;28;20026;-30
2023/08/28 03:10:02;;;;;;;13.15;8.10;;;;;;;21.37;72.70;99614.72;5105329;28;20032;-28
2023/08/28 03:12:27;;;;;;;;;;;;;;;21.50;72.65;99616.66;5110183;28;20028;-30
2023/08/28 03:14:53;;;;;;;14.18;8.20;;;;;;;21.40;73.93;99612.22;5109340;28;20289;-28
2023/08/28 03:17:18;;;;;;;13.50;7.35;;;;;;;21.56;73.86;99618.16;5109388;28;20558;-29
2023/08/28 03:19:44;;;;;;;12.93;7.90;;;;;;;21.58;74.14;99628.72;5109681;28;20509;-28
2023/08/28 03:22:09;;;;;;;11.38;7.80;;;;;;;21.07;74.45;99630.47;5109533;28;20031;-29
2023/08/28 03:24:34;;;;;;;17.23;8.52;;;;;;;21.34;75.57;99626.19;5109103;28;20039;-28
2023/08/28 03:27:02;;;;;;;11.38;7.60;;;;;;;21.43;74.92;99629.81;5109307;27;20035;-28
2023/08/28 03:29:28;;;;;;;12.55;7.65;;;;;;;21.26;74.87;99620.34;5109305;28;20036;-28
2023/08/28 03:31:53;;;;;;;17.67;7.90;;;;;;;21.16;75.85;99631.38;5109017;28;20028;-29
2023/08/28 03:34:21;;;;;;;14.10;7.22;;;;;;;21.50;74.29;99624.00;5109456;27;20114;-28
2023/08/28 03:36:46;;;;;;;;;;;;;;;20.98;74.43;99630.34;5109609;28;20024;-31
2023/08/28 03:39:11;;;;;;;22.40;7.50;;;;;;;20.46;77.00;99627.69;5108989;28;19922;-29
2023/08/28 03:41:37;;;;;;;16.88;7.68;;;;;;;20.84;75.60;99624.91;5107773;28;20634;-31
2023/08/28 03:44:02;;;;;;;10.73;7.72;;;;;;;21.23;74.60;99633.72;5108907;28;20498;-28
2023/08/28 03:46:28;;;;;;;12.10;7.05;;;;;;;21.06;74.54;99626.16;5109473;28;20024;-28
2023/08/28 03:48:53;;;;;;;9.05;6.47;;;;;;;21.36;74.28;99626.69;5108541;28;20052;-28
2023/08/28 03:51:19;;;;;;;14.98;8.10;;;;;;;21.36;74.25;99634.81;5109144;28;20016;-28
2023/08/28 03:53:44;;;;;;;12.88;7.20;;;;;;;21.37;73.92;99637.25;5108726;28;20031;-28
2023/08/28 03:56:10;;;;;;;13.93;8.10;;;;;;;21.52;73.61;99636.16;5108862;28;20035;-28
2023/08/28 03:58:35;;;;;;;12.15;7.82;;;;;;;21.33;74.13;99632.69;5108490;28;20038;-28
2023/08/28 04:01:01;;;;;;;9.90;7.25;;;;;;;21.34;73.37;99629.69;5108958;27;20400;-31
2023/08/28 04:03:26;;;;;;;11.90;7.63;;;;;;;21.11;74.66;99622.56;5108731;28;20031;-30
2023/08/28 04:05:52;;;;;;;12.57;7.28;;;;;;;21.03;74.23;99607.78;5108641;28;20460;-29
2023/08/28 04:08:19;;;;;;;13.80;8.40;;;;;;;20.77;73.86;99618.28;5108651;28;20020;-29
2023/08/28 04:10:44;;;;;;;14.57;8.10;;;;;;;20.72;74.95;99621.88;5108414;28;20071;-29
2023/08/28 04:13:10;;;;;;;18.50;7.53;;;;;;;21.13;75.18;99615.72;5108455;28;20062;-26
2023/08/28 04:15:37;;;;;;;30.00;9.20;;;;;;;21.78;72.05;99630.19;5108411;28;20029;-29
2023/08/28 04:18:04;;;;;;;21.63;8.25;;;;;;;21.96;71.09;99626.53;5108545;28;20419;-29
2023/08/28 04:20:30;;;;;;;17.58;8.73;;;;;;;21.73;72.03;99638.44;5108334;28;20024;-28
2023/08/28 04:22:55;;;;;;;19.25;8.95;;;;;;;21.54;72.75;99636.66;5107321;28;20031;-28
2023/08/28 04:25:21;;;;;;;15.27;8.52;;;;;;;21.69;73.45;99643.69;5108321;28;20024;-29
2023/08/28 04:27:46;;;;;;;14.25;8.93;;;;;;;21.58;73.60;99637.66;5108293;28;20035;-29
2023/08/28 04:30:12;;;;;;;15.45;8.32;;;;;;;21.64;73.13;99657.38;5108285;28;20110;-29
2023/08/28 04:32:37;;;;;;;19.23;8.00;;;;;;;21.53;72.76;99659.44;5108151;28;20852;-28
2023/08/28 04:35:03;;;;;;;20.48;8.57;;;;;;;21.46;72.93;99656.34;5108137;28;20024;-29
2023/08/28 04:37:31;;;;;;;14.98;8.30;;;;;;;21.39;73.33;99629.59;5107769;28;20100;-28
2023/08/28 04:39:56;;;;;;;14.30;8.15;;;;;;;21.53;73.35;99636.94;5108135;28;20120;-30
2023/08/28 04:42:22;;;;;;;13.23;8.60;;;;;;;21.57;73.46;99636.03;5107820;28;20689;-30
2023/08/28 04:44:47;;;;;;;13.15;7.70;;;;;;;21.51;73.97;99631.03;5108321;28;20508;-28
2023/08/28 04:47:13;;;;;;;14.77;9.20;;;;;;;21.77;72.92;99634.81;5107417;28;20553;-29
2023/08/28 04:49:39;;;;;;;13.07;8.48;;;;;;;21.91;72.10;99634.81;5107153;28;20055;-30
2023/08/28 04:52:05;;;;;;;13.32;8.57;;;;;;;21.75;72.78;99628.09;5108021;28;20800;-29
2023/08/28 04:54:31;;;;;;;16.58;9.95;;;;;;;21.49;74.66;99625.09;5106655;28;20085;-28
2023/08/28 04:56:57;;;;;;;14.52;9.70;;;;;;;21.17;76.07;99638.44;5107590;28;20058;-29
2023/08/28 04:59:23;;;;;;;11.00;8.07;;;;;;;21.11;75.75;99634.19;5106455;28;20032;-31
2023/08/28 05:01:48;;;;;;;12.35;9.60;;;;;;;21.57;73.63;99630.63;5107669;28;20028;-33
2023/08/28 05:04:14;;;;;;;14.13;9.63;;;;;;;21.79;72.56;99631.81;5107312;28;20024;-32
2023/08/28 05:06:39;;;;;;;15.82;10.07;;;;;;;21.62;74.34;99627.81;5107369;28;20031;-33
2023/08/28 05:09:05;;;;;;;13.55;10.20;;;;;;;21.85;73.28;99638.72;5107300;28;20034;-31
2023/08/28 05:11:30;;;;;;;11.95;10.23;;;;;;;21.91;73.01;99634.00;5107274;28;20119;-31
2023/08/28 05:13:56;;;;;;;12.45;9.63;;;;;;;22.05;72.84;99645.63;5107169;28;20020;-29
2023/08/28 05:16:22;;;;;;;12.45;9.63;;;;;;;21.74;74.85;99635.44;5107249;28;20596;-29
2023/08/28 05:18:47;;;;;;;16.02;9.55;;;;;;;21.73;74.80;99619.44;5107183;28;20027;-29
2023/08/28 05:21:13;;;;;;;13.35;9.20;;;;;;;21.82;75.42;99631.19;5106673;28;20032;-29
2023/08/28 05:23:38;;;;;;;13.50;9.27;;;;;;;21.76;75.46;99633.22;5107454;28;20084;-29
2023/08/28 05:26:03;;;;;;;10.88;8.43;;;;;;;21.97;74.97;99628.16;5107016;28;20535;-29
2023/08/28 05:28:31;;;;;;;11.98;8.27;;;;;;;22.19;74.44;99632.00;5106976;28;20038;-29
2023/08/28 05:30:57;;;;;;;12.38;8.18;;;;;;;22.50;73.12;99645.72;5107189;28;20499;-31
2023/08/28 05:33:23;;;;;;;12.80;8.23;;;;;;;22.63;73.42;99638.59;5106771;28;20099;-29
2023/08/28 05:35:49;;;;;;;10.88;8.48;;;;;;;22.64;72.71;99616.56;5106897;28;20445;-29
2023/08/28 05:38:15;;;;;;;10.18;8.35;;;;;;;22.53;73.98;99638.84;5106585;28;20015;-30
2023/08/28 05:40:43;;;;;;;11.13;8.20;;;;;;;22.68;72.93;99641.22;5106920;28;20073;-29
2023/08/28 05:43:08;;;;;;;;;;;;;;;22.85;71.93;99646.72;5107271;28;20436;-30
2023/08/28 05:45:34;;;;;;;13.10;8.95;;;;;;;23.03;71.79;99646.88;5106709;28;19912;-30
2023/08/28 05:47:59;;;;;;;17.23;9.15;;;;;;;22.98;71.17;99644.25;5106646;28;20134;-29
2023/08/28 05:50:25;;;;;;;16.33;9.63;;;;;;;23.35;70.19;99658.53;5106245;28;20032;-29
2023/08/28 05:52:50;;;;;;;16.58;8.68;;;;;;;23.46;69.93;99668.03;5106716;28;20031;-29
2023/08/28 05:55:16;;;;;;;14.65;8.60;;;;;;;23.63;69.30;99659.91;5106523;28;20020;-30
2023/08/28 05:57:41;;;;;;;11.25;7.65;;;;;;;23.42;70.16;99661.59;5106254;28;20054;-29
2023/08/28 06:00:13;;;;;;;13.07;8.02;;;;;;;23.55;69.49;99663.41;5106458;28;20118;-29
2023/08/28 06:02:41;;;;;;;11.75;7.38;;;;;;;24.03;68.79;99668.03;5106374;28;20419;-31
2023/08/28 06:05:12;;;;;;;12.75;7.75;;;;;;;23.99;69.90;99660.81;5106356;28;20033;-29
2023/08/28 06:07:37;;;;;;;13.75;8.45;;;;;;;24.18;68.77;99665.97;5106001;28;20038;-29
2023/08/28 06:10:04;;;;;;;15.73;8.70;;;;;;;24.28;67.35;99652.03;5106122;28;20027;-29
2023/08/28 06:12:30;;;;;;;10.38;8.07;;;;;;;24.39;67.43;99663.41;5106400;28;20125;-30
2023/08/28 06:14:55;;;;;;;14.88;8.57;;;;;;;24.58;66.30;99666.63;5106048;28;20447;-30
2023/08/28 06:17:23;;;;;;;14.32;8.77;;;;;;;24.48;67.70;99664.22;5106198;28;20027;-30
2023/08/28 06:19:49;;;;;;;11.27;7.90;;;;;;;24.25;69.28;99663.53;5105928;28;20027;-29
2023/08/28 06:22:16;;;;;;;11.65;7.35;;;;;;;24.76;67.97;99658.41;5106164;28;20034;-29
2023/08/28 06:24:42;;;;;;;14.50;8.85;;;;;;;25.12;65.57;99668.91;5106129;28;20115;-29
2023/08/28 06:27:07;;;;;;;14.10;9.15;;;;;;;25.33;65.34;99665.50;5106082;28;20167;-29
2023/08/28 06:29:35;;;;;;;14.32;8.75;;;;;;;25.55;65.10;99670.69;5105647;28;20727;-29
2023/08/28 06:32:00;;;;;;;;;;;;;;;25.53;65.10;99664.75;5106247;28;20502;-29
2023/08/28 06:34:26;;;;;;;10.77;7.93;;;;;;;25.45;66.25;99660.16;5106008;28;19911;-32
2023/08/28 06:36:52;;;;;;;13.30;9.70;;;;;;;25.69;66.39;99658.75;5105614;28;20032;-29
2023/08/28 06:39:18;;;;;;;11.80;9.30;;;;;;;25.51;66.11;99658.84;5106057;28;20031;-31
2023/08/28 06:41:43;;;;;;;17.65;10.30;;;;;;;25.49;67.31;99652.91;5105317;28;20482;-29
2023/08/28 06:44:09;;;;;;;16.05;10.77;;;;;;;25.65;66.62;99648.47;5105779;28;20063;-29
2023/08/28 06:46:36;;;;;;;14.45;9.48;;;;;;;26.08;66.39;99643.88;5105004;28;20023;-30
2023/08/28 06:49:02;;;;;;;15.70;9.95;;;;;;;26.15;64.94;99633.22;5105455;28;20109;-29
2023/08/28 06:51:28;;;;;;;15.18;9.70;;;;;;;26.23;63.46;99651.47;5105504;28;20474;-29
2023/08/28 06:53:53;;;;;;;15.73;11.40;;;;;;;26.23;62.32;99653.41;5105542;28;20057;-30
2023/08/28 06:56:19;;;;;;;19.48;14.50;;;;;;;26.28;61.37;99653.22;5105806;28;20016;-31
2023/08/28 06:58:45;;;;;;;18.98;14.40;;;;;;;26.22;61.65;99646.38;5105384;28;20473;-29
2023/08/28 07:01:10;;;;;;;16.13;13.50;;;;;;;26.30;59.49;99661.91;5105487;28;20024;-30
2023/08/28 07:03:35;;;;;;;17.58;11.57;;;;;;;26.30;59.73;99656.44;5105481;28;20027;-32
2023/08/28 07:06:01;;;;;;;12.55;10.60;;;;;;;26.51;57.30;99650.13;5105476;28;20034;-29
2023/08/28 07:08:26;;;;;;;13.13;10.65;;;;;;;26.63;56.73;99655.69;5105526;28;20664;-29
2023/08/28 07:10:52;;;;;;;14.75;9.30;;;;;;;26.69;55.14;99654.34;5105501;28;20027;-29
2023/08/28 07:13:17;;;;;;;18.92;9.23;;;;;;;26.78;54.26;99643.28;5105680;28;20027;-29
2023/08/28 07:15:42;;;;;;;10.55;7.55;;;;;;;26.85;55.24;99638.09;5104824;28;20463;-30
2023/08/28 07:18:08;;;;;;;10.88;7.82;;;;;;;27.05;53.77;99622.69;5104999;28;20046;-30
2023/08/28 07:20:36;;;;;;;12.02;6.30;;;;;;;26.69;53.12;99639.88;5105541;28;20035;-31
2023/08/28 07:23:03;;;;;;;11.25;6.13;;;;;;;27.16;51.88;99636.75;5105463;28;20058;-30
2023/08/28 07:25:28;;;;;;;10.75;6.15;;;;;;;27.27;50.87;99651.63;5105394;28;20043;-30
2023/08/28 07:27:54;;;;;;;8.27;5.18;;;;;;;27.34;50.94;99654.59;5105466;28;20479;-30
2023/08/28 07:30:20;;;;;;;9.05;5.70;;;;;;;27.64;50.80;99652.44;5105398;28;20434;-30
2023/08/28 07:32:45;;;;;;;7.13;4.88;;;;;;;27.94;45.62;99659.59;5105434;28;20059;-29
2023/08/28 07:35:11;;;;;;;7.57;4.95;;;;;;;27.64;47.93;99646.97;5105149;28;20058;-27
2023/08/28 07:37:37;;;;;;;8.52;5.10;;;;;;;27.24;48.91;99650.38;5105464;28;20055;-31
2023/08/28 07:40:06;;;;;;;6.55;4.70;;;;;;;27.57;50.81;99648.66;5105501;28;20035;-30
2023/08/28 07:42:38;;;;;;;9.27;4.78;;;;;;;27.82;48.76;99652.16;5104543;28;20051;-30
2023/08/28 07:45:04;;;;;;;8.75;4.95;;;;;;;28.08;49.22;99653.75;5104917;28;20027;-31
2023/08/28 07:47:29;;;;;;;8.27;4.70;;;;;;;28.37;49.99;99656.16;5105005;28;20110;-31
2023/08/28 07:49:55;;;;;;;13.35;5.78;;;;;;;28.23;49.41;99651.06;5104830;28;20455;-30
2023/08/28 07:52:20;;;;;;;11.95;6.15;;;;;;;28.36;47.65;99653.75;5105289;28;20043;-29
2023/08/28 07:54:46;;;;;;;10.30;5.60;;;;;;;28.62;48.21;99661.56;5105323;28;20048;-30
2023/08/28 07:57:11;;;;;;;8.82;5.65;;;;;;;28.77;47.63;99658.09;5105374;28;20423;-29
2023/08/28 07:59:37;;;;;;;9.27;6.35;;;;;;;28.90;47.48;99663.50;5108134;28;20042;-29
2023/08/28 08:02:07;;;;;;;8.00;5.32;;;;;;;28.78;48.18;99676.13;5109231;28;20076;-30
2023/08/28 08:04:33;;;;;;;10.27;5.22;;;;;;;28.61;49.28;99676.44;5108758;28;20034;-30
2023/08/28 08:06:58;;;;;;;9.63;5.20;;;;;;;29.16;47.58;99674.00;5108891;28;20036;-29
2023/08/28 08:09:24;;;;;;;10.93;5.13;;;;;;;28.95;48.03;99665.97;5108757;28;20031;-32
2023/08/28 08:11:52;;;;;;;8.75;5.20;;;;;;;29.06;45.78;99661.56;5108638;28;20031;-33
2023/08/28 08:14:17;;;;;;;8.38;5.35;;;;;;;29.14;46.75;99652.38;5108817;28;20795;-30
2023/08/28 08:16:43;;;;;;;8.98;5.05;;;;;;;29.39;44.95;99655.75;5108694;28;20038;-29
2023/08/28 08:19:09;;;;;;;8.65;4.93;;;;;;;29.48;44.88;99663.00;5108401;28;20035;-29
2023/08/28 08:21:34;;;;;;;8.30;5.63;;;;;;;29.38;44.19;99653.34;5108499;28;20514;-29
2023/08/28 08:24:00;;;;;;;11.98;5.47;;;;;;;29.42;46.98;99655.03;5108572;28;20019;-29
2023/08/28 08:26:26;;;;;;;7.70;5.07;;;;;;;29.41;46.17;99652.66;5108623;28;20031;-31
2023/08/28 08:28:51;;;;;;;7.85;4.82;;;;;;;29.47;46.04;99640.22;5108331;28;20024;-30
2023/08/28 08:31:17;;;;;;;9.05;4.88;;;;;;;29.43;46.66;99631.13;5108398;28;20027;-29
2023/08/28 08:33:43;;;;;;;10.02;5.07;;;;;;;29.35;46.29;99632.88;5108048;28;20420;-29
2023/08/28 08:36:13;;;;;;;9.57;5.55;;;;;;;29.79;44.73;99624.50;5108240;28;20027;-30
2023/08/28 08:38:39;;;;;;;8.48;4.85;;;;;;;30.03;45.02;99628.94;5107969;28;20176;-30
2023/08/28 08:41:06;;;;;;;7.63;5.07;;;;;;;30.10;42.60;99628.31;5108203;28;20110;-30
2023/08/28 08:43:36;;;;;;;10.45;5.30;;;;;;;30.26;43.53;99628.25;5107976;28;20165;-31
2023/08/28 08:46:07;;;;;;;6.80;4.95;;;;;;;29.87;44.50;99619.94;5107919;28;20074;-30
2023/08/28 08:48:36;;;;;;;7.43;5.88;;;;;;;29.93;44.93;99624.00;5107993;28;20176;-29
2023/08/28 08:51:06;;;;;;;7.65;5.40;;;;;;;30.24;43.17;99623.09;5108061;28;20027;-29
2023/08/28 08:53:41;;;;;;;6.82;5.28;;;;;;;30.28;42.79;99622.34;5107700;28;20023;-30
2023/08/28 08:56:12;;;;;;;7.63;5.70;;;;;;;30.42;42.79;99623.47;5107921;28;20028;-30
2023/08/28 08:58:38;;;;;;;8.25;5.30;;;;;;;30.34;43.65;99619.00;5106592;28;20074;-30
2023/08/28 09:01:05;;;;;;;8.93;5.43;;;;;;;30.86;42.19;99607.75;5107706;28;20027;-31
2023/08/28 09:03:31;;;;;;;7.57;5.18;;;;;;;31.01;42.15;99615.88;5107223;28;20262;-33
2023/08/28 09:05:59;;;;;;;8.70;5.93;;;;;;;31.03;42.30;99604.50;5107584;28;20081;-30
2023/08/28 09:08:25;;;;;;;;;;;;;;;30.94;41.71;99615.00;5107648;28;20024;-33
2023/08/28 09:10:50;;;;;;;8.25;5.28;;;;;;;31.39;39.95;99605.88;5107514;28;19916;-29
2023/08/28 09:13:16;;;;;;;7.18;5.05;;;;;;;31.66;39.20;99602.34;5107246;28;20028;-30
2023/08/28 09:15:41;;;;;;;8.85;4.65;;;;;;;31.66;38.57;99594.88;5107392;28;20023;-30
2023/08/28 09:18:07;;;;;;;9.35;5.85;;;;;;;31.80;40.18;99594.25;5107253;28;20165;-31
2023/08/28 09:20:35;;;;;;;7.50;4.75;;;;;;;31.92;38.42;99585.75;5107259;28;20046;-29
2023/08/28 09:23:00;;;;;;;7.15;5.32;;;;;;;32.14;38.03;99594.31;5107029;28;20061;-30
2023/08/28 09:25:26;;;;;;;6.60;4.97;;;;;;;31.57;40.18;99581.38;5107391;28;20047;-30
2023/08/28 09:27:56;;;;;;;7.85;5.55;;;;;;;31.47;40.45;99582.00;5107570;28;20032;-30
2023/08/28 09:30:27;;;;;;;7.22;5.30;;;;;;;31.32;39.65;99580.97;5106905;28;20027;-29
2023/08/28 09:33:01;;;;;;;10.63;5.38;;;;;;;31.32;40.40;99560.88;5107136;28;20061;-30
2023/08/28 09:35:27;;;;;;;9.02;5.25;;;;;;;31.78;39.38;99560.75;5106980;28;20027;-31
2023/08/28 09:38:00;;;;;;;8.55;6.00;;;;;;;32.48;38.23;99574.97;5106713;28;20019;-29
2023/08/28 09:40:31;;;;;;;7.32;4.75;;;;;;;32.77;37.07;99573.28;5106588;28;20131;-32
2023/08/28 09:42:57;;;;;;;7.53;4.88;;;;;;;32.76;37.75;99555.94;5106893;28;20111;-29
2023/08/28 09:45:28;;;;;;;7.97;5.03;;;;;;;32.41;37.52;99562.69;5106859;28;20126;-29
2023/08/28 09:47:54;;;;;;;8.18;5.13;;;;;;;32.79;37.21;99563.44;5106531;28;20055;-29
2023/08/28 09:50:35;;;;;;;8.13;5.13;;;;;;;33.36;37.03;99559.56;5106619;28;20420;-30
2023/08/28 09:53:14;;;;;;;7.32;4.82;;;;;;;33.37;36.39;99558.38;5106694;28;20080;-29
2023/08/28 09:55:45;;;;;;;8.98;4.93;;;;;;;33.17;35.71;99547.59;5106382;28;20034;-30
2023/08/28 09:58:11;;;;;;;8.52;5.00;;;;;;;33.05;34.50;99550.63;5106537;28;20023;-30
2023/08/28 10:00:40;;;;;;;6.55;4.53;;;;;;;32.99;35.40;99557.69;5106416;28;20028;-29
2023/08/28 10:03:13;;;;;;;9.05;5.07;;;;;;;33.41;33.66;99551.69;5106770;28;20587;-31
2023/08/28 10:05:42;;;;;;;7.22;4.78;;;;;;;33.51;33.90;99550.19;5106110;28;20197;-31
2023/08/28 10:08:09;;;;;;;7.65;4.80;;;;;;;33.70;32.93;99548.31;5105892;28;20026;-33
2023/08/28 10:10:36;;;;;;;6.78;4.35;;;;;;;33.57;34.18;99536.75;5105873;28;20027;-31
2023/08/28 10:13:06;;;;;;;7.05;4.70;;;;;;;33.95;32.52;99551.97;5105849;28;20027;-30
2023/08/28 10:15:33;;;;;;;5.55;4.80;;;;;;;33.87;33.83;99544.81;5102857;28;20035;-30
2023/08/28 10:18:11;;;;;;;;;;;;;;;34.06;32.92;99545.66;5106759;28;20031;-30
2023/08/28 10:20:42;;;;;;;9.07;4.72;;;;;;;33.65;32.30;99532.09;5105210;28;20057;-31
2023/08/28 10:23:09;;;;;;;6.80;4.57;;;;;;;33.92;32.43;99535.34;5106167;28;20084;-31
2023/08/28 10:25:35;;;;;;;7.93;4.35;;;;;;;34.08;32.63;99529.47;5106021;28;20084;-29
2023/08/28 10:28:01;;;;;;;8.13;4.53;;;;;;;33.36;32.66;99509.81;5105741;28;20512;-29
2023/08/28 10:30:28;;;;;;;7.55;3.83;;;;;;;33.57;30.39;99514.63;5106264;28;20269;-30
2023/08/28 10:32:59;;;;;;;6.28;4.30;;;;;;;33.78;30.73;99522.28;5106042;28;20024;-30
2023/08/28 10:35:28;;;;;;;8.48;3.90;;;;;;;33.73;30.71;99519.88;5106115;28;20031;-30
2023/08/28 10:37:56;;;;;;;8.13;4.82;;;;;;;34.15;30.39;99532.28;5105946;28;20026;-29
2023/08/28 10:40:22;;;;;;;7.60;4.35;;;;;;;33.86;30.84;99515.59;5106124;28;20059;-29
2023/08/28 10:42:54;;;;;;;7.57;4.05;;;;;;;33.83;31.34;99510.81;5105550;28;20059;-30
2023/08/28 10:45:20;;;;;;;6.05;4.13;;;;;;;34.15;32.24;99515.69;5105870;28;20019;-29
2023/08/28 10:47:49;;;;;;;12.38;4.90;;;;;;;34.01;30.53;99506.13;5105504;28;20100;-30
2023/08/28 10:50:16;;;;;;;7.38;4.10;;;;;;;34.13;30.23;99496.72;5105495;28;20043;-31
2023/08/28 10:52:41;;;;;;;6.45;3.92;;;;;;;34.77;29.68;99504.28;5105677;28;20024;-32
2023/08/28 10:55:09;;;;;;;7.55;3.83;;;;;;;34.53;30.22;99510.59;5105732;28;20027;-31
2023/08/28 10:57:42;;;;;;;8.15;4.30;;;;;;;35.02;29.01;99506.22;5105863;28;20024;-29
2023/08/28 11:00:21;;;;;;;6.28;4.30;;;;;;;35.45;27.80;99506.16;5105424;28;20023;-30
2023/08/28 11:03:02;;;;;;;7.45;3.85;;;;;;;35.42;28.38;99501.41;5105456;28;20149;-30
2023/08/28 11:05:28;;;;;;;11.88;4.43;;;;;;;35.57;28.19;99494.63;5104354;28;20034;-31
2023/08/28 11:07:56;;;;;;;6.90;3.90;;;;;;;36.16;26.42;99493.94;5105512;28;20103;-31
2023/08/28 11:10:24;;;;;;;6.80;3.83;;;;;;;36.18;26.67;99494.31;5105236;28;20032;-30
2023/08/28 11:12:53;;;;;;;6.40;3.70;;;;;;;36.01;26.95;99503.53;5105422;28;20725;-29
2023/08/28 11:15:41;;;;;;;10.30;3.97;;;;;;;36.07;26.44;99496.38;5105597;28;21413;-29
2023/08/28 11:18:12;;;;;;;7.05;4.40;;;;;;;35.80;28.49;99496.13;5105439;28;20111;-34
2023/08/28 11:20:38;;;;;;;6.40;3.75;;;;;;;36.05;25.75;99489.66;5105405;28;20035;-30
2023/08/28 11:23:03;;;;;;;5.75;3.45;;;;;;;36.26;25.00;99486.75;5105384;28;20020;-30
2023/08/28 11:25:37;;;;;;;5.97;3.40;;;;;;;36.26;25.52;99485.97;5105698;28;20116;-30
2023/08/28 11:28:03;;;;;;;5.68;3.30;;;;;;;36.64;24.72;99470.22;5105383;28;20039;-33